Terminal Aerodrome Forecast
Issued by NWS Charleston, WV

Current Version | Previous Version | Graphics & Text | Print | Product List | Glossary On
Versions: 1 2 3 4 5 6 7 8 9 10 11 12 13 14 15 16 17 18 19 20 21 22 23 24 25 26
000
FTUS41 KRLX 292338
TAFCRW
TAF
KCRW 292338Z 3000/3024 07005KT 6SM -RA BKN016 BKN028 OVC080
      TEMPO 3000/3002 4SM SHRA BKN008
     FM300300 VRB03KT 4SM BR OVC005
     FM300800 00000KT 4SM SHRA OVC004
     FM301500 24004KT P6SM BKN015
     FM302000 VRB03KT P6SM BKN035=

USA.gov is the U.S. government's official web portal to all federal, state and local government web resources and services.